createdAt,value
2019-06-15T00:02:26.454Z,75.63
2019-06-15T00:04:56.542Z,74.37
2019-06-15T00:07:26.606Z,75.07
2019-06-15T00:09:56.772Z,74.67
2019-06-15T00:12:28.643Z,81.20
2019-06-15T00:14:58.702Z,79.90
2019-06-15T00:17:28.818Z,75.97
2019-06-15T00:19:58.930Z,79.27
2019-06-15T00:22:29.046Z,78.02
2019-06-15T00:24:59.244Z,81.07
2019-06-15T00:27:29.344Z,79.77
2019-06-15T00:29:59.494Z,79.33
2019-06-15T00:32:29.719Z,75.57
2019-06-15T00:34:59.801Z,74.67
2019-06-15T00:37:29.910Z,78.17
2019-06-15T00:40:02.843Z,76.53
2019-06-15T00:42:32.882Z,76.40
2019-06-15T00:45:04.732Z,76.03
2019-06-15T00:47:34.842Z,82.00
2019-06-15T00:50:05.438Z,74.10
2019-06-15T00:52:35.653Z,78.35
2019-06-15T00:55:06.500Z,79.77
2019-06-15T00:57:36.594Z,81.67
2019-06-15T01:00:07.504Z,74.75
2019-06-15T01:02:37.666Z,77.33
2019-06-15T01:05:07.924Z,84.23
2019-06-15T01:07:38.076Z,78.30
2019-06-15T01:10:10.110Z,76.13
2019-06-15T01:12:40.193Z,77.60
2019-06-15T01:15:10.582Z,77.93
2019-06-15T01:17:40.719Z,76.92
2019-06-15T01:20:10.770Z,74.43
2019-06-15T01:22:40.941Z,75.30
2019-06-15T01:25:11.414Z,77.73
2019-06-15T01:27:43.122Z,79.17
2019-06-15T01:30:13.543Z,74.82
2019-06-15T01:32:43.684Z,79.67
2019-06-15T01:35:14.048Z,77.47
2019-06-15T01:37:44.249Z,80.07
2019-06-15T01:40:14.612Z,80.77
2019-06-15T01:42:44.771Z,77.20
2019-06-15T01:45:14.951Z,74.83
2019-06-15T01:47:46.272Z,77.77
2019-06-15T01:50:16.342Z,81.82
2019-06-15T01:52:46.410Z,78.47
2019-06-15T01:55:20.864Z,83.20
2019-06-15T01:57:50.361Z,76.73
2019-06-15T02:00:22.908Z,79.50
2019-06-15T02:02:52.998Z,75.07
2019-06-15T02:05:23.089Z,75.97
2019-06-15T02:07:53.107Z,76.67
2019-06-15T02:10:30.812Z,75.40
2019-06-15T02:13:00.882Z,78.47
2019-06-15T02:15:33.314Z,76.50
2019-06-15T02:18:03.437Z,77.97
2019-06-15T02:20:33.496Z,79.17
2019-06-15T02:23:03.639Z,78.20
2019-06-15T02:25:36.819Z,78.93
2019-06-15T02:28:09.107Z,81.63
2019-06-15T02:30:39.198Z,79.30
2019-06-15T02:33:09.233Z,79.93
2019-06-15T02:35:39.361Z,75.00
2019-06-15T02:38:09.417Z,78.53
2019-06-15T02:40:39.548Z,90.40
2019-06-15T02:43:09.731Z,84.07
2019-06-15T02:45:42.812Z,82.47
2019-06-15T02:48:12.918Z,77.77
2019-06-15T02:50:43.001Z,81.20
2019-06-15T02:53:13.032Z,89.47
2019-06-15T02:55:50.537Z,78.40
2019-06-15T02:58:14.898Z,77.80
2019-06-15T03:01:06.273Z,82.30
2019-06-15T03:03:36.533Z,85.50
2019-06-15T03:06:07.122Z,75.70
2019-06-15T03:08:37.272Z,80.43
2019-06-15T03:11:08.731Z,92.70
2019-06-15T03:13:38.771Z,81.63
2019-06-15T03:16:08.896Z,77.97
2019-06-15T03:18:39.017Z,79.73
2019-06-15T03:21:09.057Z,83.80
2019-06-15T03:23:39.153Z,77.03
2019-06-15T03:26:09.278Z,95.73
2019-06-15T03:28:39.371Z,77.60
2019-06-15T03:31:13.513Z,81.60
2019-06-15T03:33:43.550Z,80.23
2019-06-15T03:36:13.591Z,80.20
2019-06-15T03:38:45.417Z,75.83
2019-06-15T03:41:15.529Z,76.00
2019-06-15T03:43:45.544Z,82.33
2019-06-15T03:46:15.609Z,85.17
2019-06-15T03:48:45.676Z,75.57
2019-06-15T03:51:15.789Z,80.23
2019-06-15T03:53:45.764Z,81.10
2019-06-15T03:56:21.445Z,77.70
2019-06-15T03:58:47.646Z,78.70
2019-06-15T04:01:27.255Z,78.53
2019-06-15T04:03:57.347Z,84.43
2019-06-15T04:06:27.390Z,82.90
2019-06-15T04:08:57.508Z,78.23
2019-06-15T04:11:27.720Z,81.50
2019-06-15T04:13:57.717Z,80.67
2019-06-15T04:16:28.172Z,80.93
2019-06-15T04:18:58.259Z,78.70
2019-06-15T04:21:30.877Z,79.87
2019-06-15T04:24:02.683Z,81.53
2019-06-15T04:26:36.386Z,82.30
2019-06-15T04:29:05.556Z,84.07
2019-06-15T04:31:35.645Z,78.93
2019-06-15T04:34:05.788Z,82.30
2019-06-15T04:36:35.923Z,78.83
2019-06-15T04:39:07.669Z,85.70
2019-06-15T04:41:37.745Z,75.97
2019-06-15T04:44:10.689Z,85.77
2019-06-15T04:46:40.783Z,80.30
2019-06-15T04:49:10.829Z,81.97
2019-06-15T04:51:40.895Z,76.10
2019-06-15T04:54:13.338Z,83.13
2019-06-15T04:56:50.987Z,82.73
2019-06-15T04:59:18.293Z,79.93
2019-06-15T05:01:48.896Z,78.52
2019-06-15T05:04:19.003Z,78.07
2019-06-15T05:06:49.144Z,80.38
2019-06-15T05:09:19.225Z,79.47
2019-06-15T05:11:49.341Z,83.23
2019-06-15T05:14:19.407Z,85.67
2019-06-15T05:16:49.475Z,81.50
2019-06-15T05:19:19.636Z,78.13
2019-06-15T05:21:49.706Z,77.60
2019-06-15T05:24:19.867Z,84.90
2019-06-15T05:26:50.043Z,85.92
2019-06-15T05:29:20.195Z,81.57
2019-06-15T05:31:50.238Z,84.13
2019-06-15T05:34:20.316Z,83.50
2019-06-15T05:36:50.349Z,82.30
2019-06-15T05:39:20.394Z,79.37
2019-06-15T05:41:50.495Z,78.00
2019-06-15T05:44:20.550Z,82.33
2019-06-15T05:46:50.608Z,85.03
2019-06-15T05:49:20.704Z,80.40
2019-06-15T05:51:50.759Z,79.87
2019-06-15T05:54:20.981Z,82.27
2019-06-15T05:56:51.122Z,84.57
2019-06-15T05:59:21.273Z,82.17
2019-06-15T06:01:51.381Z,81.40
2019-06-15T06:04:21.582Z,80.13
2019-06-15T06:06:51.744Z,77.87
2019-06-15T06:09:21.994Z,80.83
2019-06-15T06:11:52.034Z,78.60
2019-06-15T06:14:25.071Z,76.50
2019-06-15T06:16:55.122Z,81.37
2019-06-15T06:19:25.230Z,72.87
2019-06-15T06:21:58.201Z,76.93
2019-06-15T06:24:27.112Z,81.63
2019-06-15T06:26:57.337Z,76.77
2019-06-15T06:29:27.485Z,71.20
2019-06-15T06:31:57.579Z,80.87
2019-06-15T06:34:27.682Z,70.20
2019-06-15T06:36:57.762Z,73.73
2019-06-15T06:39:27.920Z,81.20
2019-06-15T06:41:58.067Z,79.80
2019-06-15T06:44:28.208Z,78.53
2019-06-15T06:46:58.280Z,74.03
2019-06-15T06:49:28.426Z,72.60
2019-06-15T06:52:00.247Z,80.30
2019-06-15T06:54:30.414Z,73.90
2019-06-15T06:57:00.558Z,76.33
2019-06-15T06:59:30.751Z,79.10
2019-06-15T07:02:00.835Z,74.93
2019-06-15T07:04:30.931Z,80.87
2019-06-15T07:07:01.016Z,77.00
2019-06-15T07:09:39.459Z,76.30
2019-06-15T07:12:11.728Z,79.65
2019-06-15T07:14:42.812Z,75.03
2019-06-15T07:17:12.914Z,76.20
2019-06-15T07:19:43.727Z,77.63
2019-06-15T07:22:17.204Z,78.72
2019-06-15T07:24:47.619Z,77.00
2019-06-15T07:27:20.059Z,75.17
2019-06-15T07:30:10.981Z,81.03
2019-06-15T07:32:46.870Z,81.17
2019-06-15T07:35:17.178Z,72.73
2019-06-15T07:38:06.155Z,103.00
2019-06-15T07:41:07.125Z,84.80
2019-06-15T07:43:40.395Z,83.17
2019-06-15T07:46:11.797Z,72.47
2019-06-15T07:48:44.019Z,78.20
2019-06-15T07:51:16.127Z,83.33
2019-06-15T07:53:46.289Z,74.67
2019-06-15T07:56:16.402Z,92.57
2019-06-15T07:58:46.614Z,76.93
2019-06-15T08:01:16.907Z,73.70
2019-06-15T08:03:47.020Z,82.20
2019-06-15T08:06:19.895Z,81.00
2019-06-15T08:08:50.118Z,74.07
2019-06-15T08:11:20.157Z,73.00
2019-06-15T08:13:52.902Z,75.00
2019-06-15T08:16:23.057Z,72.85
2019-06-15T08:18:53.182Z,79.47
2019-06-15T08:21:23.320Z,75.40
2019-06-15T08:23:53.449Z,73.87
2019-06-15T08:26:23.631Z,85.43
2019-06-15T08:28:53.937Z,86.28
2019-06-15T08:31:24.078Z,69.67
2019-06-15T08:33:54.131Z,71.60
2019-06-15T08:36:24.307Z,74.90
2019-06-15T08:38:54.464Z,75.43
2019-06-15T08:41:24.674Z,73.87
2019-06-15T08:43:54.914Z,74.00
2019-06-15T08:46:26.767Z,71.53
2019-06-15T08:48:56.899Z,74.50
2019-06-15T08:51:27.120Z,74.90
2019-06-15T08:53:57.181Z,73.40
2019-06-15T08:56:27.232Z,71.43
2019-06-15T08:58:57.968Z,78.00
2019-06-15T09:01:28.137Z,71.70
2019-06-15T09:03:58.367Z,72.37
2019-06-15T09:06:28.750Z,81.23
2019-06-15T09:08:58.872Z,70.97
2019-06-15T09:11:29.019Z,75.67
2019-06-15T09:13:59.138Z,68.87
2019-06-15T09:16:29.300Z,76.60
2019-06-15T09:19:02.423Z,71.83
2019-06-15T09:21:35.214Z,69.80
2019-06-15T09:24:05.435Z,72.77
2019-06-15T09:26:35.533Z,69.77
2019-06-15T09:29:11.427Z,69.80
2019-06-15T09:31:37.746Z,74.57
2019-06-15T09:34:18.566Z,72.90
2019-06-15T09:36:39.886Z,77.53
2019-06-15T09:39:10.288Z,71.97
2019-06-15T09:41:40.488Z,69.70
2019-06-15T09:44:10.673Z,72.77
2019-06-15T09:46:40.782Z,71.20
2019-06-15T09:49:14.976Z,73.52
2019-06-15T09:51:45.185Z,72.87
2019-06-15T09:54:15.474Z,71.00
2019-06-15T09:56:45.637Z,72.10
2019-06-15T09:59:25.538Z,72.07
2019-06-15T10:01:50.408Z,71.63
2019-06-15T10:04:23.614Z,72.50
2019-06-15T10:06:53.644Z,71.07
2019-06-15T10:09:23.781Z,69.97
2019-06-15T10:11:54.036Z,73.37
2019-06-15T10:14:24.166Z,80.13
2019-06-15T10:16:54.281Z,73.17
2019-06-15T10:19:27.372Z,75.07
2019-06-15T10:21:57.516Z,70.57
2019-06-15T10:24:27.646Z,78.03
2019-06-15T10:27:00.891Z,73.87
2019-06-15T10:29:41.599Z,72.70
2019-06-15T10:32:02.960Z,73.53
2019-06-15T10:34:34.138Z,70.93
2019-06-15T10:37:04.364Z,71.27
2019-06-15T10:39:34.558Z,73.77
2019-06-15T10:42:04.756Z,79.87
2019-06-15T10:44:34.952Z,72.70
2019-06-15T10:47:05.288Z,75.17
2019-06-15T10:49:35.514Z,71.83
2019-06-15T10:52:05.957Z,71.27
2019-06-15T10:54:36.144Z,69.20
2019-06-15T10:57:06.263Z,70.53
2019-06-15T10:59:36.566Z,70.33
2019-06-15T11:02:07.403Z,73.87
2019-06-15T11:04:44.157Z,70.00
2019-06-15T11:07:14.252Z,70.70
2019-06-15T11:09:44.372Z,72.07
2019-06-15T11:12:14.432Z,68.70
2019-06-15T11:14:44.555Z,70.60
2019-06-15T11:17:14.839Z,70.47
2019-06-15T11:19:45.023Z,76.40
2019-06-15T11:22:15.427Z,75.33
2019-06-15T11:24:45.527Z,71.80
2019-06-15T11:27:15.655Z,70.83
2019-06-15T11:29:45.951Z,76.43
2019-06-15T11:32:16.122Z,71.83
2019-06-15T11:34:49.773Z,73.15
2019-06-15T11:37:19.837Z,71.37
2019-06-15T11:39:52.290Z,71.40
2019-06-15T11:42:22.366Z,73.20
2019-06-15T11:44:52.516Z,74.30
2019-06-15T11:47:22.560Z,70.20
2019-06-15T11:49:52.636Z,71.60
2019-06-15T11:52:22.699Z,73.80
2019-06-15T11:54:52.906Z,71.50
2019-06-15T11:57:25.635Z,73.00
2019-06-15T11:59:55.699Z,73.67
2019-06-15T12:02:28.472Z,73.27
2019-06-15T12:04:58.993Z,72.97
2019-06-15T12:07:29.280Z,75.43
2019-06-15T12:09:59.393Z,71.77
2019-06-15T12:12:29.573Z,76.40
2019-06-15T12:14:59.655Z,74.70
2019-06-15T12:17:29.868Z,74.12
2019-06-15T12:19:59.961Z,73.87
2019-06-15T12:22:30.129Z,71.70
2019-06-15T12:25:00.233Z,71.77
2019-06-15T12:27:30.458Z,72.50
2019-06-15T12:30:00.580Z,75.03
2019-06-15T12:32:30.671Z,78.43
2019-06-15T12:35:00.765Z,74.27
2019-06-15T12:37:30.949Z,72.70
2019-06-15T12:40:01.035Z,84.00
2019-06-15T12:42:31.203Z,74.70
2019-06-15T12:45:01.962Z,73.20
2019-06-15T12:47:32.179Z,74.07
2019-06-15T12:50:02.463Z,76.00
2019-06-15T12:52:32.695Z,75.43
2019-06-15T12:55:02.809Z,77.03
2019-06-15T12:57:32.971Z,73.60
2019-06-15T13:00:03.035Z,72.30
2019-06-15T13:02:33.131Z,77.30
2019-06-15T13:05:03.305Z,74.90
2019-06-15T13:07:33.397Z,75.50
2019-06-15T13:10:03.497Z,75.77
2019-06-15T13:12:34.080Z,73.63
2019-06-15T13:15:04.534Z,76.23
2019-06-15T13:17:34.909Z,76.90
2019-06-15T13:20:05.784Z,78.37
2019-06-15T13:22:35.935Z,78.53
2019-06-15T13:25:06.313Z,77.07
2019-06-15T13:27:36.751Z,75.33
2019-06-15T13:30:07.427Z,76.30
2019-06-15T13:32:37.526Z,80.00
2019-06-15T13:35:08.189Z,78.25
2019-06-15T13:37:42.215Z,80.70
2019-06-15T13:40:10.068Z,76.20
2019-06-15T13:42:40.323Z,76.03
2019-06-15T13:45:12.459Z,76.50
2019-06-15T13:47:42.582Z,76.77
2019-06-15T13:50:12.767Z,80.20
2019-06-15T13:52:42.884Z,77.97
2019-06-15T13:55:12.972Z,80.50
2019-06-15T13:57:43.077Z,77.27
2019-06-15T14:00:13.227Z,78.37
2019-06-15T14:02:43.299Z,78.50
2019-06-15T14:05:13.456Z,75.57
2019-06-15T14:07:43.556Z,80.30
2019-06-15T14:10:14.339Z,77.20
2019-06-15T14:12:44.695Z,81.92
2019-06-15T14:15:16.842Z,82.55
2019-06-15T14:17:47.180Z,82.63
2019-06-15T14:20:17.377Z,78.80
2019-06-15T14:22:47.477Z,77.77
2019-06-15T14:25:17.578Z,82.00
2019-06-15T14:27:47.631Z,80.47
2019-06-15T14:30:17.750Z,79.23
2019-06-15T14:32:48.192Z,80.77
2019-06-15T14:35:18.689Z,79.72
2019-06-15T14:37:49.033Z,81.97
2019-06-15T14:40:20.345Z,78.97
2019-06-15T14:42:51.816Z,85.93
2019-06-15T14:45:21.951Z,81.70
2019-06-15T14:47:52.183Z,85.30
2019-06-15T14:50:22.268Z,85.00
2019-06-15T14:52:52.448Z,81.53
2019-06-15T14:55:22.591Z,79.47
2019-06-15T14:57:52.619Z,79.30
2019-06-15T15:00:23.121Z,81.63
2019-06-15T15:02:55.821Z,86.00
2019-06-15T15:05:27.338Z,77.40
2019-06-15T15:07:57.244Z,76.90
2019-06-15T15:10:27.327Z,81.30
2019-06-15T15:12:57.493Z,78.10
2019-06-15T15:15:27.639Z,81.27
2019-06-15T15:17:57.879Z,81.03
2019-06-15T15:20:28.057Z,79.63
2019-06-15T15:22:58.075Z,81.13
2019-06-15T15:25:30.935Z,77.53
2019-06-15T15:28:00.179Z,76.70
2019-06-15T15:30:39.053Z,78.10
2019-06-15T15:33:09.303Z,80.00
2019-06-15T15:35:39.670Z,78.83
2019-06-15T15:38:10.180Z,79.30
2019-06-15T15:40:40.259Z,77.93
2019-06-15T15:43:10.447Z,80.90
2019-06-15T15:45:40.488Z,78.20
2019-06-15T15:48:10.550Z,74.55
2019-06-15T15:50:40.648Z,76.37
2019-06-15T15:53:11.610Z,79.30
2019-06-15T15:55:41.701Z,75.20
2019-06-15T15:58:11.775Z,81.27
2019-06-15T16:00:41.902Z,76.63
2019-06-15T16:03:12.008Z,77.27
2019-06-15T16:05:42.243Z,76.62
2019-06-15T16:08:13.522Z,76.63
2019-06-15T16:10:46.012Z,77.87
2019-06-15T16:13:16.578Z,73.37
2019-06-15T16:15:46.754Z,74.20
2019-06-15T16:18:20.008Z,76.70
2019-06-15T16:20:50.113Z,77.83
2019-06-15T16:23:20.153Z,75.80
2019-06-15T16:25:50.426Z,76.60
2019-06-15T16:28:20.448Z,75.37
2019-06-15T16:31:05.026Z,73.00
2019-06-15T16:33:22.284Z,73.43
2019-06-15T16:35:52.481Z,75.53
2019-06-15T16:38:23.463Z,77.13
2019-06-15T16:40:55.999Z,73.30
2019-06-15T16:43:28.708Z,75.00
2019-06-15T16:45:57.384Z,74.07
2019-06-15T16:48:27.451Z,74.33
2019-06-15T16:50:57.930Z,71.50
2019-06-15T16:53:28.052Z,72.83
2019-06-15T16:55:58.121Z,76.20
2019-06-15T16:58:28.179Z,73.87
2019-06-15T17:00:58.268Z,72.30
2019-06-15T17:03:29.549Z,75.00
2019-06-15T17:05:59.871Z,72.70
2019-06-15T17:08:29.964Z,74.30
2019-06-15T17:11:00.128Z,72.03
2019-06-15T17:13:30.420Z,72.30
2019-06-15T17:16:01.388Z,71.90
2019-06-15T17:18:31.553Z,72.40
2019-06-15T17:21:01.945Z,72.80
2019-06-15T17:23:32.000Z,70.73
2019-06-15T17:26:02.078Z,69.90
2019-06-15T17:28:32.134Z,70.80
2019-06-15T17:31:02.232Z,78.37
2019-06-15T17:33:37.612Z,71.67
2019-06-15T17:36:06.594Z,71.83
2019-06-15T17:38:36.995Z,72.10
2019-06-15T17:41:07.283Z,71.80
2019-06-15T17:43:37.418Z,69.93
2019-06-15T17:46:07.580Z,69.53
2019-06-15T17:48:37.684Z,70.22
2019-06-15T17:51:07.783Z,76.57
2019-06-15T17:53:37.911Z,70.27
2019-06-15T17:56:08.066Z,72.30
2019-06-15T17:58:38.209Z,74.77
2019-06-15T18:01:08.355Z,72.83
2019-06-15T18:03:50.673Z,72.80
2019-06-15T18:06:10.205Z,71.53
2019-06-15T18:08:40.549Z,69.80
2019-06-15T18:11:10.603Z,75.47
2019-06-15T18:13:40.710Z,74.67
2019-06-15T18:16:10.785Z,70.40
2019-06-15T18:18:40.867Z,73.47
2019-06-15T18:21:10.934Z,71.80
2019-06-15T18:23:42.517Z,71.17
2019-06-15T18:26:12.615Z,70.12
2019-06-15T18:28:43.017Z,84.23
2019-06-15T18:31:13.077Z,75.33
2019-06-15T18:33:43.183Z,69.90
2019-06-15T18:36:13.286Z,68.97
2019-06-15T18:38:46.343Z,100.77
2019-06-15T18:41:16.959Z,74.13
2019-06-15T18:43:47.518Z,71.43
2019-06-15T18:46:17.641Z,69.77
2019-06-15T18:48:47.730Z,68.40
2019-06-15T18:51:18.665Z,68.20
2019-06-15T18:53:48.747Z,68.40
2019-06-15T18:56:18.873Z,71.73
2019-06-15T18:58:49.101Z,71.00
2019-06-15T19:01:19.547Z,70.63
2019-06-15T19:03:49.700Z,74.60
2019-06-15T19:06:19.790Z,68.13
2019-06-15T19:08:49.796Z,72.00
2019-06-15T19:11:19.850Z,68.57
2019-06-15T19:13:50.103Z,68.33
2019-06-15T19:16:20.377Z,67.78
2019-06-15T19:18:52.461Z,69.80
2019-06-15T19:21:22.619Z,68.95
2019-06-15T19:23:52.838Z,70.47
2019-06-15T19:26:22.901Z,68.90
2019-06-15T19:28:52.972Z,68.40
2019-06-15T19:31:23.081Z,68.87
2019-06-15T19:33:53.466Z,73.53
2019-06-15T19:36:23.831Z,69.87
2019-06-15T19:38:53.977Z,69.73
2019-06-15T19:41:26.519Z,70.20
2019-06-15T19:43:57.122Z,70.83
2019-06-15T19:46:27.206Z,76.37
2019-06-15T19:48:57.344Z,71.27
2019-06-15T19:51:28.972Z,70.57
2019-06-15T19:53:59.413Z,68.20
2019-06-15T19:56:30.129Z,69.80
2019-06-15T19:59:00.783Z,71.07
2019-06-15T20:01:31.110Z,71.33
2019-06-15T20:04:01.374Z,69.60
2019-06-15T20:06:31.357Z,72.23
2019-06-15T20:09:01.513Z,74.83
2019-06-15T20:11:31.733Z,69.07
2019-06-15T20:14:01.933Z,70.97
2019-06-15T20:16:32.078Z,68.50
2019-06-15T20:19:02.411Z,69.97
2019-06-15T20:21:32.554Z,69.37
2019-06-15T20:24:02.899Z,70.80
2019-06-15T20:26:36.537Z,73.60
2019-06-15T20:29:12.618Z,70.63
2019-06-15T20:31:42.721Z,68.37
2019-06-15T20:34:13.006Z,67.90
2019-06-15T20:36:43.265Z,68.90
2019-06-15T20:39:16.288Z,66.87
2019-06-15T20:41:47.244Z,67.20
2019-06-15T20:44:17.437Z,72.40
2019-06-15T20:47:00.676Z,68.17
2019-06-15T20:49:36.798Z,67.92
2019-06-15T20:52:07.116Z,67.40
2019-06-15T20:55:09.309Z,67.23
2019-06-15T20:57:42.216Z,68.47
2019-06-15T21:00:21.560Z,66.17
2019-06-15T21:02:55.962Z,66.70
2019-06-15T21:05:36.959Z,66.97
2019-06-15T21:08:06.936Z,66.93
2019-06-15T21:11:00.907Z,65.23
2019-06-15T21:13:33.237Z,67.27
2019-06-15T21:16:03.380Z,65.87
2019-06-15T21:18:47.571Z,66.77
2019-06-15T21:21:17.795Z,65.40
2019-06-15T21:24:40.082Z,70.10
2019-06-15T21:27:47.471Z,66.07
2019-06-15T21:30:18.206Z,65.78
2019-06-15T21:32:48.336Z,66.07
2019-06-15T21:35:48.950Z,68.20
2019-06-15T21:38:13.731Z,66.67
2019-06-15T21:40:47.534Z,65.28
2019-06-15T21:43:20.326Z,68.17
2019-06-15T21:48:29.195Z,66.87
2019-06-15T21:51:00.875Z,65.90
2019-06-15T21:53:31.073Z,66.03
2019-06-15T21:56:26.736Z,65.60
2019-06-15T21:58:47.071Z,65.52
2019-06-15T22:01:40.320Z,70.20
2019-06-15T22:07:13.739Z,66.23
2019-06-15T22:09:43.903Z,67.50
2019-06-15T22:12:16.298Z,68.20
2019-06-15T22:15:06.967Z,70.07
2019-06-15T22:17:37.281Z,67.07
2019-06-15T22:20:09.538Z,68.00
2019-06-15T22:22:42.890Z,67.40
2019-06-15T22:25:15.938Z,65.03
2019-06-15T22:27:46.799Z,65.30
2019-06-15T22:30:17.317Z,65.53
2019-06-15T22:32:48.245Z,65.73
2019-06-15T22:35:21.082Z,64.97
2019-06-15T22:37:53.091Z,67.90
2019-06-15T22:40:23.527Z,65.07
2019-06-15T22:42:56.293Z,65.03
2019-06-15T22:45:26.722Z,65.20
2019-06-15T22:47:59.844Z,65.70
2019-06-15T22:50:36.087Z,65.03
2019-06-15T22:53:07.304Z,64.20
2019-06-15T22:55:37.546Z,68.13
2019-06-15T22:58:07.748Z,65.75
2019-06-15T23:00:37.861Z,64.83
2019-06-15T23:03:07.925Z,68.17
2019-06-15T23:05:38.134Z,65.77
2019-06-15T23:08:08.293Z,70.03
2019-06-15T23:10:38.521Z,63.50
2019-06-15T23:13:08.605Z,63.90
2019-06-15T23:15:38.865Z,66.40
2019-06-15T23:18:29.308Z,67.00
2019-06-15T23:21:01.679Z,71.30
2019-06-15T23:24:11.821Z,70.80
2019-06-15T23:27:37.950Z,72.87
2019-06-15T23:30:11.718Z,66.67
2019-06-15T23:32:50.052Z,70.20
2019-06-15T23:35:26.239Z,75.40
2019-06-15T23:37:56.355Z,77.67
2019-06-15T23:43:29.513Z,67.00
2019-06-15T23:46:06.568Z,73.25
2019-06-15T23:48:36.571Z,69.80
2019-06-15T23:51:07.136Z,73.20
2019-06-15T23:53:37.596Z,65.52
2019-06-15T23:56:09.836Z,73.87
2019-06-15T23:58:41.035Z,76.17
